Time;durP1;ratioP1;P1;durP2;ratioP2;P2;SDS_P1;SDS_P2;PMS_P1;PMS_P2;Temp;Humidity;BMP_temperature;BMP_pressure;BME280_temperature;BME280_humidity;BME280_pressure;Samples;Min_cycle;Max_cycle;Signal;HPM_P1;HPM_P2
2023/11/09 04:04:50;;;;;;;0.32;0.32;;;5.30;99.90;;;;;;6144189;23;20594;-87
2023/11/09 04:07:15;;;;;;;0.40;0.40;;;5.30;99.90;;;;;;4933822;29;20211;-65
2023/11/09 04:09:41;;;;;;;0.30;0.30;;;5.20;99.90;;;;;;4936148;29;20174;-66
2023/11/09 04:12:08;;;;;;;0.30;0.30;;;5.20;99.90;;;;;;4936241;29;20250;-65
2023/11/09 04:14:34;;;;;;;0.30;0.30;;;5.10;99.90;;;;;;4935998;29;20682;-66
2023/11/09 04:17:00;;;;;;;0.30;0.30;;;5.10;99.90;;;;;;4916382;29;20200;-63
2023/11/09 04:19:25;;;;;;;0.30;0.30;;;5.00;99.90;;;;;;4916386;29;20234;-65
2023/11/09 04:21:52;;;;;;;0.40;0.40;;;4.90;99.90;;;;;;4917012;29;20190;-64
2023/11/09 04:24:18;;;;;;;0.30;0.30;;;4.80;99.90;;;;;;4916869;29;20670;-65
2023/11/09 04:26:43;;;;;;;0.43;0.43;;;4.80;99.90;;;;;;4917205;29;20203;-62
2023/11/09 04:29:11;;;;;;;0.30;0.30;;;4.70;99.90;;;;;;4917240;29;20182;-63
2023/11/09 04:31:37;;;;;;;0.40;0.40;;;4.70;99.90;;;;;;4916808;29;20252;-67
2023/11/09 04:34:08;;;;;;;0.30;0.30;;;4.70;99.90;;;;;;4916399;29;20209;-65
2023/11/09 04:36:42;;;;;;;0.38;0.38;;;4.70;99.90;;;;;;4915903;29;20243;-65
2023/11/09 04:39:08;;;;;;;0.40;0.40;;;4.70;99.90;;;;;;4917236;29;20181;-64
2023/11/09 04:41:34;;;;;;;0.40;0.40;;;4.70;99.90;;;;;;4917263;29;20258;-65
2023/11/09 04:44:00;;;;;;;0.40;0.40;;;4.70;99.90;;;;;;4916698;29;20179;-65
2023/11/09 04:46:28;;;;;;;0.40;0.40;;;4.70;99.90;;;;;;4916536;29;20819;-65
2023/11/09 04:48:55;;;;;;;0.50;0.50;;;4.70;99.90;;;;;;4916863;29;20191;-64
2023/11/09 04:51:22;;;;;;;0.40;0.40;;;4.70;99.90;;;;;;4917029;29;20558;-65
2023/11/09 04:53:51;;;;;;;0.30;0.30;;;4.70;99.90;;;;;;4916734;29;20178;-64
2023/11/09 04:56:52;;;;;;;0.30;0.30;;;4.70;99.90;;;;;;4919620;29;20204;-63
2023/11/09 05:07:33;;;;;;;0.30;0.30;;;4.90;99.90;;;;;;4919528;29;20189;-64
2023/11/09 05:10:00;;;;;;;0.40;0.40;;;4.90;99.90;;;;;;4920545;29;20213;-65
2023/11/09 05:12:26;;;;;;;0.30;0.30;;;5.00;99.90;;;;;;4920301;29;20183;-65
2023/11/09 05:14:52;;;;;;;0.30;0.30;;;5.10;99.90;;;;;;4919729;29;20192;-65
2023/11/09 05:17:19;;;;;;;0.40;0.40;;;5.20;99.90;;;;;;4920369;29;20201;-67
2023/11/09 05:19:46;;;;;;;0.40;0.40;;;5.20;99.90;;;;;;4919900;29;20192;-66
2023/11/09 05:22:12;;;;;;;0.30;0.30;;;5.40;99.90;;;;;;4920329;29;20686;-63
2023/11/09 05:24:39;;;;;;;0.30;0.30;;;5.50;99.90;;;;;;4918444;29;20288;-64
2023/11/09 05:27:07;;;;;;;0.30;0.30;;;5.60;99.90;;;;;;4918763;29;20206;-63
2023/11/09 05:29:33;;;;;;;0.40;0.40;;;5.70;99.90;;;;;;4920184;29;20176;-65
2023/11/09 05:32:06;;;;;;;0.30;0.30;;;5.70;99.90;;;;;;4920152;29;20656;-65
2023/11/09 05:34:35;;;;;;;0.40;0.40;;;5.80;99.90;;;;;;4919365;29;20184;-64
2023/11/09 05:37:05;;;;;;;0.90;0.88;;;5.80;99.90;;;;;;4919264;29;20653;-65
2023/11/09 05:39:32;;;;;;;0.40;0.40;;;5.80;99.90;;;;;;4919493;29;20193;-65
2023/11/09 05:41:59;;;;;;;0.32;0.32;;;5.70;99.90;;;;;;4919881;29;20178;-64
2023/11/09 05:44:27;;;;;;;0.30;0.30;;;5.70;99.90;;;;;;4919518;29;20189;-64
2023/11/09 05:46:54;;;;;;;0.30;0.30;;;5.70;99.90;;;;;;4919825;29;20191;-65
2023/11/09 05:49:20;;;;;;;0.30;0.30;;;5.70;99.90;;;;;;4920283;29;20214;-65
2023/11/09 05:51:46;;;;;;;0.45;0.45;;;5.70;99.90;;;;;;4919618;29;20173;-64
2023/11/09 05:54:12;;;;;;;0.40;0.40;;;5.60;99.90;;;;;;4919054;29;20654;-64
2023/11/09 05:56:38;;;;;;;0.30;0.30;;;5.50;99.90;;;;;;4919570;29;20249;-63
2023/11/09 05:59:03;;;;;;;0.30;0.30;;;5.50;99.90;;;;;;4919778;29;20184;-65
2023/11/09 06:01:30;;;;;;;0.40;0.40;;;5.50;99.90;;;;;;4919196;29;20212;-63
2023/11/09 06:04:00;;;;;;;0.32;0.32;;;5.50;99.90;;;;;;4919054;29;20430;-65
2023/11/09 06:06:26;;;;;;;0.30;0.30;;;5.50;99.90;;;;;;4918174;29;20210;-63
2023/11/09 06:08:51;;;;;;;0.30;0.30;;;5.50;99.90;;;;;;4918956;29;20204;-63
2023/11/09 06:11:17;;;;;;;0.40;0.40;;;5.50;99.90;;;;;;4919222;29;20177;-64
2023/11/09 06:13:43;;;;;;;0.30;0.30;;;5.50;99.90;;;;;;4919367;29;20181;-62
2023/11/09 06:16:09;;;;;;;0.40;0.40;;;5.50;99.90;;;;;;4918962;29;20285;-65
2023/11/09 06:18:36;;;;;;;0.33;0.33;;;5.50;99.90;;;;;;4918916;29;20645;-63
2023/11/09 06:21:02;;;;;;;0.30;0.30;;;5.60;99.90;;;;;;4918931;29;20430;-65
2023/11/09 06:23:28;;;;;;;0.40;0.40;;;5.60;99.90;;;;;;4918592;29;20563;-63
2023/11/09 06:25:55;;;;;;;0.30;0.30;;;5.60;99.90;;;;;;4917778;29;20475;-64
2023/11/09 06:28:22;;;;;;;0.30;0.30;;;5.70;99.90;;;;;;4918896;29;20186;-66
2023/11/09 06:30:48;;;;;;;0.40;0.40;;;5.70;99.90;;;;;;4918803;29;20170;-65
2023/11/09 06:33:13;;;;;;;0.30;0.30;;;5.70;99.90;;;;;;4918846;29;20174;-63
2023/11/09 06:35:40;;;;;;;0.30;0.30;;;5.70;99.90;;;;;;4918430;29;20931;-63
2023/11/09 06:38:08;;;;;;;0.40;0.40;;;5.70;99.90;;;;;;4918529;29;20234;-63
2023/11/09 06:40:36;;;;;;;0.50;0.50;;;5.70;99.90;;;;;;4918714;29;20269;-64
2023/11/09 06:43:02;;;;;;;0.30;0.30;;;5.70;99.90;;;;;;4918789;29;20201;-63
2023/11/09 06:45:28;;;;;;;0.40;0.40;;;5.60;99.90;;;;;;4918083;29;20237;-64
2023/11/09 06:47:54;;;;;;;0.40;0.40;;;5.60;99.90;;;;;;4918566;29;20734;-65
2023/11/09 06:50:19;;;;;;;0.30;0.30;;;5.60;99.90;;;;;;4918795;29;20694;-63
2023/11/09 06:52:46;;;;;;;0.40;0.40;;;5.60;99.90;;;;;;4918260;29;20266;-64
2023/11/09 06:55:15;;;;;;;0.30;0.30;;;5.60;99.90;;;;;;4917959;29;20245;-64
2023/11/09 06:57:42;;;;;;;0.38;0.38;;;5.70;99.90;;;;;;4918737;29;20189;-64
2023/11/09 07:00:11;;;;;;;0.30;0.30;;;5.70;99.90;;;;;;4918616;29;20202;-64
2023/11/09 07:02:41;;;;;;;0.30;0.30;;;5.80;99.90;;;;;;4918454;29;20217;-66
2023/11/09 07:05:08;;;;;;;0.30;0.30;;;5.90;99.90;;;;;;4918120;29;20576;-64
2023/11/09 07:07:34;;;;;;;0.30;0.30;;;5.90;99.90;;;;;;4917894;29;20194;-64
2023/11/09 07:10:01;;;;;;;0.40;0.40;;;6.00;99.90;;;;;;4916002;29;20185;-64
2023/11/09 07:12:27;;;;;;;0.40;0.40;;;6.10;99.90;;;;;;4915681;29;20186;-63
2023/11/09 07:14:53;;;;;;;0.30;0.30;;;6.20;99.90;;;;;;4915702;29;20173;-64
2023/11/09 07:17:22;;;;;;;0.30;0.30;;;6.30;99.90;;;;;;4916185;29;20189;-69
2023/11/09 07:19:49;;;;;;;0.30;0.30;;;6.40;99.90;;;;;;4916028;29;20185;-63
2023/11/09 07:22:16;;;;;;;0.30;0.30;;;6.60;99.90;;;;;;4914884;29;20551;-63
2023/11/09 07:24:44;;;;;;;0.40;0.40;;;6.70;99.90;;;;;;4916674;29;20662;-62
2023/11/09 07:27:10;;;;;;;0.40;0.40;;;6.90;99.90;;;;;;4917970;29;20237;-64
2023/11/09 07:29:36;;;;;;;0.30;0.30;;;7.00;99.90;;;;;;4917876;29;20174;-62
2023/11/09 07:32:02;;;;;;;0.30;0.30;;;7.20;99.90;;;;;;4918093;29;20542;-63
2023/11/09 07:34:30;;;;;;;0.33;0.33;;;7.20;99.90;;;;;;4917345;29;20190;-62
2023/11/09 07:36:56;;;;;;;0.30;0.30;;;7.30;99.90;;;;;;4917453;29;20678;-64
2023/11/09 07:39:24;;;;;;;0.38;0.38;;;7.30;99.90;;;;;;4917857;29;20184;-63
2023/11/09 07:41:50;;;;;;;0.30;0.30;;;7.40;99.90;;;;;;4918239;29;20178;-65
2023/11/09 07:44:16;;;;;;;0.40;0.40;;;7.40;99.90;;;;;;4917194;29;20591;-65
2023/11/09 07:46:42;;;;;;;0.32;0.32;;;7.50;99.90;;;;;;4917582;29;20448;-64
2023/11/09 07:49:10;;;;;;;0.40;0.40;;;7.60;99.90;;;;;;4917632;29;20177;-62
2023/11/09 07:51:37;;;;;;;0.30;0.30;;;7.80;99.90;;;;;;4917204;29;20178;-65
2023/11/09 07:54:07;;;;;;;0.30;0.30;;;8.00;99.90;;;;;;4916934;29;20264;-65
2023/11/09 07:56:33;;;;;;;0.30;0.30;;;8.20;99.90;;;;;;4917249;29;20237;-63
2023/11/09 07:58:59;;;;;;;0.30;0.30;;;8.50;99.90;;;;;;4917671;29;20213;-64
2023/11/09 08:01:24;;;;;;;0.30;0.30;;;8.70;99.90;;;;;;4917824;29;20184;-64
2023/11/09 08:03:51;;;;;;;0.30;0.30;;;9.00;99.90;;;;;;4916927;29;20639;-65
2023/11/09 08:06:17;;;;;;;0.30;0.30;;;9.20;99.90;;;;;;4917055;29;20716;-62
2023/11/09 08:08:44;;;;;;;0.30;0.30;;;9.40;99.90;;;;;;4917489;29;20301;-65
2023/11/09 08:11:11;;;;;;;0.40;0.40;;;9.60;99.90;;;;;;4917473;29;20198;-65
2023/11/09 08:13:37;;;;;;;0.30;0.30;;;9.80;99.90;;;;;;4917322;29;20178;-66
2023/11/09 08:16:05;;;;;;;0.30;0.30;;;9.90;99.90;;;;;;4916293;29;20540;-64
2023/11/09 08:18:32;;;;;;;0.30;0.30;;;10.00;99.90;;;;;;4916811;29;20460;-64
2023/11/09 08:20:59;;;;;;;0.30;0.30;;;10.00;99.90;;;;;;4916608;29;20182;-63
2023/11/09 08:23:25;;;;;;;0.30;0.30;;;10.10;99.90;;;;;;4917069;29;20289;-64
2023/11/09 08:25:51;;;;;;;0.30;0.30;;;10.30;99.90;;;;;;4916603;29;20304;-65
2023/11/09 08:28:17;;;;;;;0.30;0.30;;;10.30;99.90;;;;;;4917172;29;20189;-65
2023/11/09 08:30:43;;;;;;;0.30;0.30;;;10.40;99.90;;;;;;4916020;29;20274;-63
2023/11/09 08:33:09;;;;;;;0.30;0.30;;;10.50;99.90;;;;;;4916774;29;20206;-64
2023/11/09 08:35:35;;;;;;;0.30;0.30;;;10.60;99.90;;;;;;4916568;29;20677;-65
2023/11/09 08:38:01;;;;;;;0.30;0.30;;;10.60;99.90;;;;;;4916825;29;20420;-64
2023/11/09 08:40:30;;;;;;;0.30;0.30;;;10.70;99.90;;;;;;4916881;29;20932;-65
2023/11/09 08:42:57;;;;;;;0.30;0.30;;;10.70;99.90;;;;;;4916826;29;20175;-63
2023/11/09 08:45:27;;;;;;;0.50;0.50;;;10.80;99.90;;;;;;4931026;29;20691;-64
2023/11/09 08:47:53;;;;;;;0.40;0.40;;;10.80;99.90;;;;;;4916570;29;20275;-64
2023/11/09 08:50:22;;;;;;;0.30;0.30;;;10.90;99.60;;;;;;4916598;29;20858;-63
2023/11/09 08:52:48;;;;;;;0.30;0.30;;;10.90;99.30;;;;;;4916636;29;20180;-65
2023/11/09 08:55:14;;;;;;;0.30;0.30;;;11.00;99.90;;;;;;4916265;29;20247;-64
2023/11/09 08:57:40;;;;;;;0.40;0.40;;;11.00;99.40;;;;;;4916752;29;20207;-64
2023/11/09 09:00:11;;;;;;;0.30;0.30;;;11.00;98.90;;;;;;4916415;29;20850;-65
2023/11/09 09:02:51;;;;;;;0.30;0.30;;;11.10;99.10;;;;;;4916632;29;20420;-66
2023/11/09 09:05:23;;;;;;;0.30;0.30;;;11.10;99.00;;;;;;4916174;29;20232;-64
2023/11/09 09:07:50;;;;;;;0.32;0.32;;;11.10;98.40;;;;;;4916424;29;20176;-63
2023/11/09 09:10:17;;;;;;;0.30;0.30;;;11.20;98.80;;;;;;4916511;29;20186;-63
2023/11/09 09:12:47;;;;;;;0.30;0.30;;;11.10;99.10;;;;;;4916457;29;20176;-64
2023/11/09 09:15:17;;;;;;;0.30;0.30;;;11.10;99.30;;;;;;4915733;29;20688;-64
2023/11/09 09:17:45;;;;;;;0.30;0.30;;;11.10;99.50;;;;;;4916559;29;20419;-65
2023/11/09 09:20:12;;;;;;;0.30;0.30;;;11.10;99.60;;;;;;4916661;29;20181;-64
2023/11/09 09:22:42;;;;;;;0.60;0.60;;;11.10;99.70;;;;;;4916541;29;20419;-64
2023/11/09 09:25:10;;;;;;;0.30;0.30;;;11.10;99.60;;;;;;4915519;29;20471;-65
2023/11/09 09:27:40;;;;;;;0.30;0.30;;;11.10;99.90;;;;;;4916591;29;20559;-64
2023/11/09 09:30:13;;;;;;;1.47;0.50;;;11.00;99.90;;;;;;4917120;29;20473;-64
2023/11/09 09:32:43;;;;;;;0.30;0.30;;;10.90;99.90;;;;;;4916141;29;20418;-64
2023/11/09 09:35:10;;;;;;;0.33;0.33;;;10.80;99.90;;;;;;4916281;29;20626;-63
2023/11/09 09:37:37;;;;;;;0.40;0.40;;;10.70;99.90;;;;;;4916584;29;20428;-65
2023/11/09 09:40:06;;;;;;;0.30;0.30;;;10.60;99.90;;;;;;4916072;29;20596;-65
2023/11/09 09:42:33;;;;;;;0.30;0.30;;;10.50;99.90;;;;;;4919287;29;20422;-65
2023/11/09 09:44:59;;;;;;;0.35;0.35;;;10.50;99.90;;;;;;4919531;29;20226;-65
2023/11/09 09:47:30;;;;;;;0.30;0.30;;;10.40;99.90;;;;;;4919810;29;20179;-65
2023/11/09 09:49:56;;;;;;;0.40;0.40;;;10.40;99.90;;;;;;4919790;29;20536;-65
2023/11/09 09:52:22;;;;;;;0.37;0.37;;;10.40;99.90;;;;;;4919784;29;20176;-65
2023/11/09 09:54:48;;;;;;;0.30;0.30;;;10.50;99.90;;;;;;4917501;29;20795;-64
2023/11/09 09:57:15;;;;;;;0.30;0.30;;;10.50;99.90;;;;;;4919530;29;20412;-63
2023/11/09 09:59:41;;;;;;;0.30;0.30;;;10.60;99.90;;;;;;4919164;29;20266;-65
2023/11/09 10:02:10;;;;;;;0.38;0.38;;;10.50;99.90;;;;;;4919615;29;20183;-64
2023/11/09 10:04:36;;;;;;;0.30;0.30;;;10.50;99.90;;;;;;4918821;29;20182;-66
2023/11/09 10:07:03;;;;;;;0.38;0.38;;;10.50;99.90;;;;;;4918786;29;20225;-64
2023/11/09 10:09:31;;;;;;;0.30;0.30;;;10.60;99.90;;;;;;4918893;29;20662;-64
2023/11/09 10:11:56;;;;;;;0.30;0.30;;;10.60;99.90;;;;;;4919442;29;20178;-63
2023/11/09 10:14:24;;;;;;;0.30;0.30;;;10.70;99.90;;;;;;4918944;29;20532;-63
2023/11/09 10:16:49;;;;;;;0.30;0.30;;;10.80;99.90;;;;;;4919120;29;20197;-63
2023/11/09 10:19:17;;;;;;;0.30;0.30;;;10.90;99.90;;;;;;4919327;29;20523;-65
2023/11/09 10:21:44;;;;;;;0.30;0.30;;;11.10;99.90;;;;;;4918980;29;20179;-64
2023/11/09 10:24:14;;;;;;;0.40;0.40;;;11.20;99.90;;;;;;4918486;29;20429;-64
2023/11/09 10:26:41;;;;;;;0.40;0.40;;;11.30;99.90;;;;;;4919013;29;20462;-64
2023/11/09 10:29:13;;;;;;;0.30;0.30;;;11.40;99.90;;;;;;4919023;29;20900;-64
2023/11/09 10:31:39;;;;;;;0.40;0.40;;;11.50;99.90;;;;;;4919036;29;20392;-63
2023/11/09 10:34:08;;;;;;;0.30;0.30;;;11.60;99.90;;;;;;4918664;29;20227;-63
2023/11/09 10:36:36;;;;;;;0.30;0.30;;;11.70;99.90;;;;;;4918201;29;20193;-64
2023/11/09 10:39:04;;;;;;;0.30;0.20;;;11.70;99.90;;;;;;4918763;29;20433;-65
2023/11/09 10:41:31;;;;;;;0.30;0.30;;;11.80;99.90;;;;;;4918538;29;20943;-64
2023/11/09 10:43:59;;;;;;;0.30;0.30;;;11.90;99.90;;;;;;4918279;29;20504;-65
2023/11/09 10:46:26;;;;;;;0.30;0.30;;;12.00;99.90;;;;;;4918531;29;20574;-64
2023/11/09 10:48:54;;;;;;;0.33;0.33;;;12.00;99.90;;;;;;4918560;29;20415;-64
2023/11/09 10:51:24;;;;;;;0.30;0.30;;;12.10;99.90;;;;;;4918174;29;20510;-63
2023/11/09 10:53:52;;;;;;;0.30;0.30;;;12.20;99.90;;;;;;4917307;29;20504;-63
2023/11/09 10:56:19;;;;;;;0.30;0.30;;;12.30;99.90;;;;;;4918305;29;20447;-64
2023/11/09 10:58:45;;;;;;;0.30;0.20;;;12.40;99.90;;;;;;4918537;29;20429;-64
2023/11/09 11:01:20;;;;;;;0.30;0.30;;;12.50;99.90;;;;;;4918588;29;20391;-65
2023/11/09 11:03:51;;;;;;;0.30;0.30;;;12.50;99.90;;;;;;4918283;29;20675;-63
2023/11/09 11:06:24;;;;;;;0.30;0.30;;;12.60;99.90;;;;;;4917923;29;20931;-64
2023/11/09 11:08:56;;;;;;;0.40;0.40;;;12.60;99.90;;;;;;4918398;29;20409;-63
2023/11/09 11:11:28;;;;;;;0.40;0.40;;;12.60;99.90;;;;;;4918303;29;20415;-64
2023/11/09 11:14:02;;;;;;;0.30;0.30;;;12.60;99.90;;;;;;4918067;29;20493;-64
2023/11/09 11:17:00;;;;;;;0.40;0.40;;;12.70;99.90;;;;;;4918250;29;20438;-64
2023/11/09 11:20:03;;;;;;;0.30;0.30;;;12.70;99.90;;;;;;4917957;29;20545;-65
2023/11/09 11:23:08;;;;;;;0.30;0.30;;;12.90;99.90;;;;;;4918199;29;20424;-64
2023/11/09 11:25:46;;;;;;;0.30;0.30;;;12.90;99.90;;;;;;4916341;29;20469;-65
2023/11/09 11:28:17;;;;;;;0.30;0.30;;;13.00;99.90;;;;;;4917436;29;20461;-64
2023/11/09 11:30:44;;;;;;;0.30;0.30;;;13.10;99.90;;;;;;4918015;29;20461;-66
2023/11/09 11:33:14;;;;;;;0.40;0.40;;;13.20;99.90;;;;;;4918018;29;20505;-65
2023/11/09 11:35:51;;;;;;;0.30;0.30;;;13.20;99.90;;;;;;4916022;29;20442;-64
2023/11/09 11:38:21;;;;;;;0.30;0.30;;;13.20;99.90;;;;;;4917911;29;20456;-65
2023/11/09 11:40:50;;;;;;;0.30;0.30;;;13.20;99.90;;;;;;4917985;29;20917;-65
2023/11/09 11:43:16;;;;;;;0.30;0.30;;;13.20;99.90;;;;;;4917700;29;20452;-64
2023/11/09 11:45:45;;;;;;;0.30;0.30;;;13.20;99.90;;;;;;4917115;29;21008;-65
2023/11/09 11:48:19;;;;;;;0.40;0.40;;;13.30;99.90;;;;;;4918140;29;20501;-63
2023/11/09 11:50:49;;;;;;;0.30;0.30;;;13.40;99.90;;;;;;4917299;29;20433;-64
2023/11/09 11:53:31;;;;;;;0.30;0.30;;;13.40;99.90;;;;;;4917802;29;20422;-64
2023/11/09 11:56:05;;;;;;;0.30;0.30;;;13.50;99.90;;;;;;4917122;29;20934;-64
2023/11/09 11:58:54;;;;;;;0.30;0.30;;;13.50;99.90;;;;;;4917371;29;20496;-65
2023/11/09 12:01:22;;;;;;;0.30;0.30;;;13.50;99.90;;;;;;4917346;29;20465;-63
2023/11/09 12:03:53;;;;;;;0.30;0.20;;;13.50;99.90;;;;;;4916956;29;20998;-64
2023/11/09 12:06:24;;;;;;;0.30;0.30;;;13.40;99.90;;;;;;4916932;29;20476;-65
2023/11/09 12:08:55;;;;;;;0.30;0.20;;;13.40;99.90;;;;;;4917426;29;20414;-64
2023/11/09 12:11:26;;;;;;;0.50;0.50;;;13.30;99.90;;;;;;4917322;29;20414;-63
2023/11/09 12:13:54;;;;;;;0.30;0.30;;;13.30;99.90;;;;;;4917088;29;20445;-64
2023/11/09 12:16:24;;;;;;;0.30;0.30;;;13.30;99.90;;;;;;4917125;29;20492;-63
2023/11/09 12:18:50;;;;;;;0.30;0.30;;;13.30;99.90;;;;;;4917265;29;20783;-63
2023/11/09 12:21:18;;;;;;;0.37;0.37;;;13.30;99.90;;;;;;4917113;29;20520;-65
2023/11/09 12:23:52;;;;;;;0.30;0.30;;;13.40;99.90;;;;;;4915533;29;20882;-64
2023/11/09 12:26:19;;;;;;;0.30;0.30;;;13.40;99.90;;;;;;4916804;29;20476;-64
2023/11/09 12:28:47;;;;;;;0.30;0.30;;;13.40;99.90;;;;;;4917309;29;20402;-63
2023/11/09 12:31:14;;;;;;;0.30;0.30;;;13.40;99.90;;;;;;4917148;29;20414;-63
2023/11/09 12:33:41;;;;;;;0.30;0.30;;;13.50;99.90;;;;;;4916910;29;20944;-65
2023/11/09 12:36:07;;;;;;;0.30;0.30;;;13.40;99.90;;;;;;4916716;29;20795;-65
2023/11/09 12:38:34;;;;;;;0.30;0.30;;;13.50;99.90;;;;;;4916716;29;20482;-65
2023/11/09 12:41:06;;;;;;;0.30;0.30;;;13.50;99.90;;;;;;4916740;29;20173;-65
2023/11/09 12:43:42;;;;;;;0.30;0.30;;;13.60;99.90;;;;;;4917081;29;20418;-64
2023/11/09 12:46:14;;;;;;;0.30;0.20;;;13.60;99.90;;;;;;4916569;29;20818;-64
2023/11/09 12:48:48;;;;;;;0.30;0.30;;;13.70;99.90;;;;;;4917016;29;20411;-65
2023/11/09 12:51:22;;;;;;;0.30;0.30;;;13.70;99.90;;;;;;4916929;29;20408;-64
2023/11/09 12:53:50;;;;;;;0.30;0.30;;;13.80;99.90;;;;;;4916369;29;20425;-65
2023/11/09 12:56:20;;;;;;;0.30;0.30;;;13.90;99.90;;;;;;4916585;29;21019;-63
2023/11/09 12:58:52;;;;;;;0.30;0.20;;;13.90;99.90;;;;;;4916756;29;20497;-64
2023/11/09 13:01:23;;;;;;;0.30;0.30;;;13.90;99.90;;;;;;4916758;29;20417;-63
2023/11/09 13:03:54;;;;;;;0.30;0.30;;;13.90;99.90;;;;;;4916650;29;20437;-65
2023/11/09 13:06:23;;;;;;;0.30;0.20;;;13.90;99.90;;;;;;4916358;29;20473;-65
2023/11/09 13:08:49;;;;;;;0.30;0.30;;;13.90;99.90;;;;;;4916241;29;20418;-65
2023/11/09 13:11:22;;;;;;;0.40;0.40;;;13.90;99.90;;;;;;4916707;29;20412;-63
2023/11/09 13:14:07;;;;;;;0.30;0.30;;;13.90;99.90;;;;;;4916533;29;20457;-65
2023/11/09 13:16:32;;;;;;;1.33;0.70;;;13.90;99.90;;;;;;4918373;29;20433;-66
2023/11/09 13:18:58;;;;;;;0.30;0.30;;;13.90;99.90;;;;;;4920462;29;20783;-65
2023/11/09 13:21:24;;;;;;;0.30;0.30;;;13.80;99.90;;;;;;4920001;29;20210;-64
2023/11/09 13:23:51;;;;;;;0.30;0.30;;;13.80;99.90;;;;;;4919584;29;20175;-64
2023/11/09 13:26:27;;;;;;;0.40;0.40;;;13.80;99.90;;;;;;4920174;29;20466;-64
2023/11/09 13:29:06;;;;;;;0.40;0.40;;;13.90;99.90;;;;;;4920147;29;20461;-65
2023/11/09 13:31:34;;;;;;;0.30;0.30;;;13.90;99.90;;;;;;4919701;29;20826;-65
2023/11/09 13:34:01;;;;;;;0.30;0.30;;;13.90;99.90;;;;;;4919673;29;20910;-65
2023/11/09 13:36:56;;;;;;;0.30;0.30;;;13.80;99.90;;;;;;4919967;29;20441;-66
2023/11/09 13:41:51;;;;;;;0.30;0.30;;;13.70;99.90;;;;;;4919983;29;20422;-66
2023/11/09 13:44:22;;;;;;;0.30;0.20;;;13.70;99.90;;;;;;4919191;29;20527;-64
2023/11/09 13:46:48;;;;;;;0.30;0.30;;;13.60;99.90;;;;;;4919767;29;20456;-63
2023/11/09 13:51:50;;;;;;;0.37;0.37;;;13.60;99.90;;;;;;4919737;29;20429;-65
2023/11/09 13:55:12;;;;;;;0.30;0.30;;;13.60;99.90;;;;;;4919512;29;20397;-65
2023/11/09 13:57:18;;;;;;;0.30;0.30;;;13.60;99.90;;;;;;4914127;29;20450;-64
2023/11/09 13:59:57;;;;;;;0.30;0.30;;;13.50;99.90;;;;;;4919436;29;20445;-67
2023/11/09 14:02:29;;;;;;;0.30;0.30;;;13.60;99.90;;;;;;4919140;29;20790;-65
2023/11/09 14:05:03;;;;;;;0.30;0.30;;;13.50;99.90;;;;;;4917398;29;20458;-64
2023/11/09 14:07:32;;;;;;;0.30;0.30;;;13.50;99.90;;;;;;4919450;29;20430;-66
2023/11/09 14:10:09;;;;;;;0.33;0.33;;;13.40;99.90;;;;;;4919678;29;20422;-65
2023/11/09 14:15:29;;;;;;;0.30;0.30;;;13.40;99.90;;;;;;4918760;29;20457;-63
2023/11/09 14:18:02;;;;;;;0.30;0.30;;;13.30;99.90;;;;;;4919654;29;20402;-63
2023/11/09 14:20:32;;;;;;;0.30;0.30;;;13.20;99.90;;;;;;4919475;29;20408;-64
2023/11/09 14:23:02;;;;;;;0.30;0.30;;;13.20;99.90;;;;;;4919285;29;20422;-64
2023/11/09 14:25:29;;;;;;;0.30;0.20;;;13.10;99.90;;;;;;4918488;29;20552;-64
2023/11/09 14:27:56;;;;;;;0.30;0.30;;;13.10;99.90;;;;;;4918004;29;20449;-67
2023/11/09 14:30:31;;;;;;;0.30;0.30;;;13.00;99.90;;;;;;4919210;29;20417;-64
2023/11/09 14:33:02;;;;;;;0.30;0.30;;;13.00;99.90;;;;;;4919320;29;20485;-63
2023/11/09 14:35:31;;;;;;;0.30;0.30;;;13.00;99.90;;;;;;4918762;29;20444;-64
2023/11/09 14:38:04;;;;;;;0.30;0.30;;;13.00;99.90;;;;;;4919024;29;20446;-64
2023/11/09 14:40:31;;;;;;;0.40;0.40;;;12.90;99.90;;;;;;4918489;29;20460;-65
2023/11/09 14:42:57;;;;;;;0.30;0.30;;;12.90;99.90;;;;;;4918978;29;20504;-64
2023/11/09 14:45:27;;;;;;;0.30;0.30;;;12.90;99.90;;;;;;4918514;29;20553;-64
2023/11/09 14:47:53;;;;;;;0.30;0.30;;;12.90;99.90;;;;;;4918752;29;20173;-63
2023/11/09 14:50:20;;;;;;;0.70;0.70;;;12.80;99.90;;;;;;4918644;29;20410;-64
2023/11/09 14:55:31;;;;;;;0.30;0.30;;;12.80;99.90;;;;;;4918236;29;20531;-65
2023/11/09 14:58:07;;;;;;;0.40;0.40;;;12.80;99.90;;;;;;4918502;29;20416;-64
2023/11/09 15:00:33;;;;;;;0.30;0.27;;;12.80;99.90;;;;;;4918534;29;20416;-64
2023/11/09 15:02:59;;;;;;;0.30;0.30;;;12.70;99.90;;;;;;4918589;29;20453;-65
2023/11/09 15:05:28;;;;;;;0.30;0.30;;;12.70;99.90;;;;;;4917692;29;20476;-65
2023/11/09 15:07:55;;;;;;;0.30;0.30;;;12.60;99.90;;;;;;4918463;29;20429;-63
2023/11/09 15:10:25;;;;;;;0.30;0.30;;;12.60;99.90;;;;;;4918274;29;20433;-63
2023/11/09 15:12:54;;;;;;;0.30;0.30;;;12.60;99.90;;;;;;4918473;29;20504;-65
2023/11/09 15:15:27;;;;;;;0.30;0.20;;;12.60;99.90;;;;;;4917783;29;20434;-63
2023/11/09 15:17:58;;;;;;;0.30;0.30;;;12.50;99.90;;;;;;4918221;29;20446;-64
2023/11/09 15:20:27;;;;;;;0.30;0.30;;;12.50;99.90;;;;;;4918037;29;20560;-65
2023/11/09 15:22:56;;;;;;;0.37;0.37;;;12.40;99.90;;;;;;4917805;29;20433;-63
2023/11/09 15:25:27;;;;;;;0.30;0.20;;;12.30;99.90;;;;;;4916304;29;21079;-63
2023/11/09 15:27:53;;;;;;;0.30;0.30;;;12.20;99.90;;;;;;4918226;29;20414;-64
2023/11/09 15:30:24;;;;;;;0.30;0.30;;;12.10;99.90;;;;;;4917879;29;20557;-63
2023/11/09 15:32:52;;;;;;;0.30;0.30;;;12.00;99.90;;;;;;4918153;29;20195;-64
2023/11/09 15:35:18;;;;;;;0.30;0.30;;;12.00;99.90;;;;;;4917649;29;20445;-63
2023/11/09 15:37:44;;;;;;;0.30;0.30;;;12.00;99.90;;;;;;4917558;29;20431;-64
2023/11/09 15:40:16;;;;;;;0.30;0.30;;;11.90;99.90;;;;;;4917760;29;20423;-63
2023/11/09 15:42:52;;;;;;;0.30;0.30;;;11.90;99.90;;;;;;4917956;29;20507;-64
2023/11/09 15:45:22;;;;;;;0.30;0.30;;;11.80;99.90;;;;;;4917196;29;20558;-63
2023/11/09 15:47:47;;;;;;;0.40;0.40;;;11.80;99.90;;;;;;4917475;29;20413;-63
2023/11/09 15:50:19;;;;;;;0.30;0.30;;;11.80;99.90;;;;;;4917787;29;20824;-63
2023/11/09 15:52:47;;;;;;;0.30;0.30;;;11.80;99.90;;;;;;4917245;29;20183;-64
2023/11/09 15:55:14;;;;;;;0.30;0.30;;;11.80;99.90;;;;;;4917045;29;20447;-64
2023/11/09 15:57:40;;;;;;;0.30;0.30;;;11.80;99.90;;;;;;4917348;29;20458;-64
2023/11/09 16:00:19;;;;;;;0.40;0.40;;;11.80;99.90;;;;;;4917590;29;20527;-63
2023/11/09 16:02:48;;;;;;;0.40;0.40;;;11.70;99.90;;;;;;4916092;29;20451;-64
2023/11/09 16:05:17;;;;;;;0.30;0.30;;;11.70;99.90;;;;;;4916774;29;20477;-63
2023/11/09 16:07:44;;;;;;;0.30;0.30;;;11.60;99.90;;;;;;4917182;29;20815;-64
2023/11/09 16:10:18;;;;;;;0.37;0.37;;;11.60;99.90;;;;;;4915703;29;20503;-64
2023/11/09 16:12:44;;;;;;;0.30;0.20;;;11.60;99.90;;;;;;4916505;29;20408;-62
2023/11/09 16:15:10;;;;;;;0.30;0.30;;;11.50;99.90;;;;;;4916798;29;20828;-63
2023/11/09 16:17:36;;;;;;;0.30;0.30;;;11.50;99.90;;;;;;4916822;29;20470;-63
2023/11/09 16:20:11;;;;;;;0.30;0.30;;;11.40;99.90;;;;;;4917022;29;20954;-64
2023/11/09 16:22:37;;;;;;;1.55;0.63;;;11.40;99.90;;;;;;4916604;29;20426;-62
2023/11/09 16:25:09;;;;;;;0.30;0.30;;;11.40;99.90;;;;;;4916341;29;20208;-64
2023/11/09 16:27:35;;;;;;;0.30;0.30;;;11.30;99.90;;;;;;4917090;29;20653;-63
2023/11/09 16:30:01;;;;;;;0.30;0.30;;;11.30;99.90;;;;;;4916181;29;20439;-62
2023/11/09 16:32:27;;;;;;;0.30;0.30;;;11.30;99.90;;;;;;4917243;29;20525;-63
2023/11/09 16:34:53;;;;;;;0.30;0.30;;;11.30;99.90;;;;;;4916007;29;20187;-63
2023/11/09 16:37:19;;;;;;;0.30;0.30;;;11.30;99.90;;;;;;4916706;29;20452;-63
2023/11/09 16:39:48;;;;;;;0.30;0.30;;;11.30;99.90;;;;;;4916513;29;20542;-61
2023/11/09 16:42:14;;;;;;;0.30;0.30;;;11.20;99.90;;;;;;4916455;29;20226;-62
2023/11/09 16:44:40;;;;;;;0.30;0.30;;;11.10;99.90;;;;;;4916091;29;20187;-65
2023/11/09 16:47:07;;;;;;;0.30;0.27;;;11.20;99.90;;;;;;4916475;29;20801;-63
2023/11/09 16:49:33;;;;;;;0.30;0.30;;;11.10;99.90;;;;;;4916421;29;20536;-62
2023/11/09 16:52:00;;;;;;;0.40;0.40;;;11.10;99.90;;;;;;4918966;29;20179;-64
2023/11/09 16:54:26;;;;;;;0.30;0.30;;;11.10;99.90;;;;;;4919869;29;20182;-64
2023/11/09 16:56:51;;;;;;;0.30;0.30;;;11.10;99.90;;;;;;4919169;29;20261;-63
2023/11/09 16:59:18;;;;;;;0.30;0.30;;;11.10;99.90;;;;;;4920479;29;20197;-63
2023/11/09 17:01:44;;;;;;;0.30;0.30;;;11.10;99.90;;;;;;4920171;29;20219;-65
2023/11/09 17:04:10;;;;;;;0.40;0.40;;;11.10;99.90;;;;;;4919782;29;20458;-64
2023/11/09 17:06:35;;;;;;;0.33;0.33;;;11.00;99.90;;;;;;4920018;29;20992;-65
2023/11/09 17:09:02;;;;;;;0.30;0.30;;;11.00;99.90;;;;;;4919969;29;20187;-65
2023/11/09 17:11:28;;;;;;;0.30;0.30;;;11.10;99.90;;;;;;4920382;29;20235;-63
2023/11/09 17:13:54;;;;;;;0.30;0.30;;;11.00;99.90;;;;;;4920217;29;20258;-64
2023/11/09 17:16:20;;;;;;;0.30;0.30;;;11.00;99.90;;;;;;4920148;29;20211;-64
2023/11/09 17:18:46;;;;;;;0.30;0.30;;;10.90;99.90;;;;;;4920327;29;20206;-63
2023/11/09 17:21:12;;;;;;;0.30;0.30;;;10.90;99.90;;;;;;4919633;29;20180;-64